Time;durP1;ratioP1;P1;durP2;ratioP2;P2;SDS_P1;SDS_P2;PMS_P1;PMS_P2;Temp;Humidity;BMP_temperature;BMP_pressure;BME280_temperature;BME280_humidity;BME280_pressure;Samples;Min_cycle;Max_cycle;Signal;HPM_P1;HPM_P2
2022/08/20 00:00:52;;;;;;;11.15;4.35;;;18.90;99.90;;;;;;5106687;28;20039;-92
2022/08/20 00:03:30;;;;;;;10.75;4.78;;;18.90;99.90;;;;;;5106415;28;20126;-92
2022/08/20 00:05:58;;;;;;;9.85;4.60;;;18.90;99.90;;;;;;5090067;28;20126;-91
2022/08/20 00:08:24;;;;;;;11.48;4.78;;;19.00;99.90;;;;;;5105288;28;20039;-92
2022/08/20 00:10:52;;;;;;;7.78;3.97;;;19.00;99.90;;;;;;5107599;28;20402;-93
2022/08/20 00:13:31;;;;;;;12.43;4.03;;;18.90;99.90;;;;;;5089352;28;20056;-91
2022/08/20 00:15:58;;;;;;;13.30;4.63;;;18.90;99.90;;;;;;5106494;28;20062;-92
2022/08/20 00:18:25;;;;;;;9.75;3.72;;;18.90;99.90;;;;;;5090079;28;20044;-93
2022/08/20 00:20:52;;;;;;;12.27;3.88;;;18.30;99.90;;;;;;5104960;28;20509;-91
2022/08/20 00:23:18;;;;;;;8.45;3.75;;;18.90;99.90;;;;;;5090099;28;20040;-92
2022/08/20 00:25:45;;;;;;;14.43;3.80;;;18.90;99.90;;;;;;5104641;28;20494;-91
2022/08/20 00:28:11;;;;;;;11.02;3.88;;;19.00;99.90;;;;;;5106929;28;20044;-91
2022/08/20 00:30:40;;;;;;;15.13;3.60;;;18.90;99.90;;;;;;5106249;28;20063;-91
2022/08/20 00:33:09;;;;;;;7.55;3.30;;;18.90;99.90;;;;;;5106347;28;20054;-92
2022/08/20 00:35:38;;;;;;;12.68;3.70;;;18.90;99.90;;;;;;5106384;28;20563;-91
2022/08/20 00:38:05;;;;;;;9.48;4.10;;;18.90;99.90;;;;;;5088246;28;20592;-91
2022/08/20 00:40:48;;;;;;;12.45;3.72;;;18.90;99.90;;;;;;5107025;28;20516;-92
2022/08/20 00:43:40;;;;;;;13.13;4.07;;;18.40;99.90;;;;;;5105298;28;20050;-94
2022/08/20 00:46:18;;;;;;;15.00;4.55;;;18.90;99.90;;;;;;5088637;28;20043;-92
2022/08/20 00:48:46;;;;;;;7.93;3.15;;;18.90;99.90;;;;;;5106554;28;20078;-90
2022/08/20 00:51:39;;;;;;;12.20;3.55;;;18.90;99.90;;;;;;5104321;28;20084;-91
2022/08/20 00:54:12;;;;;;;;;;;19.00;99.90;;;;;;5091161;28;20048;-92
2022/08/20 00:56:39;;;;;;;8.75;3.55;;;18.90;99.90;;;;;;5106610;28;19920;-91
2022/08/20 00:59:10;;;;;;;20.33;4.63;;;18.90;99.90;;;;;;5088427;28;20054;-92
2022/08/20 01:01:37;;;;;;;10.40;3.65;;;18.90;99.90;;;;;;5107098;28;20047;-91
2022/08/20 01:04:04;;;;;;;14.27;4.50;;;18.90;99.90;;;;;;5071044;28;20172;-94
2022/08/20 01:06:30;;;;;;;13.20;3.80;;;18.90;99.90;;;;;;5089410;28;20048;-91
2022/08/20 01:08:57;;;;;;;9.90;3.88;;;18.80;99.90;;;;;;5088350;28;20050;-91
2022/08/20 01:11:32;;;;;;;13.23;4.40;;;18.80;99.90;;;;;;5106877;28;20046;-92
2022/08/20 01:13:59;;;;;;;14.82;4.35;;;18.70;99.90;;;;;;5089766;28;20128;-92
2022/08/20 01:16:30;;;;;;;9.25;4.93;;;18.70;99.90;;;;;;5104559;28;20146;-93
2022/08/20 01:18:57;;;;;;;13.50;4.55;;;18.70;99.90;;;;;;5106513;28;20516;-92
2022/08/20 01:21:30;;;;;;;11.52;4.07;;;18.60;99.90;;;;;;5104590;28;20494;-92
2022/08/20 01:24:05;;;;;;;11.48;4.07;;;18.60;99.90;;;;;;5089839;28;20050;-92
2022/08/20 01:26:37;;;;;;;11.50;4.22;;;18.60;99.90;;;;;;5089531;28;20065;-91
2022/08/20 01:29:11;;;;;;;12.93;4.68;;;18.50;99.90;;;;;;5105372;28;20046;-92
2022/08/20 01:31:39;;;;;;;9.73;4.57;;;18.50;99.90;;;;;;5107327;28;20516;-92
2022/08/20 01:34:07;;;;;;;11.02;4.75;;;18.40;99.90;;;;;;5106161;28;20051;-91
2022/08/20 01:36:47;;;;;;;11.70;4.57;;;18.40;99.90;;;;;;5108963;28;20515;-92
2022/08/20 01:39:19;;;;;;;14.88;4.60;;;18.30;99.90;;;;;;5094879;28;20082;-93
2022/08/20 01:42:03;;;;;;;8.73;3.85;;;18.30;99.90;;;;;;5119019;28;20051;-92
2022/08/20 01:44:30;;;;;;;11.27;5.03;;;18.30;99.90;;;;;;5097069;28;20044;-91
2022/08/20 01:46:58;;;;;;;11.93;4.68;;;18.20;99.90;;;;;;5092591;28;20099;-91
2022/08/20 01:49:34;;;;;;;7.82;3.88;;;18.20;99.90;;;;;;5093941;28;20040;-91
2022/08/20 01:52:06;;;;;;;13.77;3.97;;;18.20;99.90;;;;;;5110997;28;20177;-92
2022/08/20 01:54:33;;;;;;;7.90;3.97;;;18.10;99.90;;;;;;5113906;28;20101;-90
2022/08/20 01:57:01;;;;;;;10.00;4.22;;;18.10;99.90;;;;;;5083625;28;20054;-92
2022/08/20 01:59:28;;;;;;;11.73;4.75;;;18.00;99.90;;;;;;5111377;28;20055;-91
2022/08/20 02:01:54;;;;;;;12.60;4.50;;;18.00;99.90;;;;;;5090748;28;20120;-92
2022/08/20 02:04:20;;;;;;;13.65;5.15;;;18.00;99.90;;;;;;5108799;28;20039;-90
2022/08/20 02:06:50;;;;;;;13.88;4.25;;;18.00;99.90;;;;;;5095031;28;20040;-92
2022/08/20 02:09:17;;;;;;;11.32;4.03;;;18.10;99.90;;;;;;5109807;28;20070;-90
2022/08/20 02:11:43;;;;;;;10.45;4.05;;;17.90;99.90;;;;;;5091756;28;20040;-91
2022/08/20 02:14:10;;;;;;;21.15;4.90;;;17.80;99.90;;;;;;5093151;28;20402;-91
2022/08/20 02:16:39;;;;;;;9.13;3.60;;;17.80;99.90;;;;;;5090947;28;20082;-91
2022/08/20 02:19:12;;;;;;;13.73;4.82;;;18.20;99.90;;;;;;5109989;28;20100;-90
2022/08/20 02:21:46;;;;;;;10.48;4.07;;;17.80;99.90;;;;;;5108969;28;20390;-92
2022/08/20 02:24:12;;;;;;;21.00;4.63;;;17.80;99.90;;;;;;5092350;28;20115;-91
2022/08/20 02:26:38;;;;;;;7.18;3.67;;;17.70;99.90;;;;;;5092923;28;20028;-92
2022/08/20 02:29:08;;;;;;;7.45;4.30;;;17.70;99.90;;;;;;5108304;28;20048;-92
2022/08/20 02:31:36;;;;;;;15.98;5.75;;;17.60;99.90;;;;;;5109787;28;20062;-92
2022/08/20 02:34:04;;;;;;;10.02;3.30;;;17.60;99.90;;;;;;5107305;28;20046;-90
2022/08/20 02:36:30;;;;;;;11.02;4.35;;;17.60;99.90;;;;;;5092442;28;20047;-91
2022/08/20 02:38:56;;;;;;;13.25;5.10;;;17.40;99.90;;;;;;5109236;28;20532;-92
2022/08/20 02:41:22;;;;;;;15.38;4.68;;;17.50;99.90;;;;;;5092570;28;20039;-92
2022/08/20 02:43:50;;;;;;;16.17;5.10;;;17.40;99.90;;;;;;5094390;28;20104;-91
2022/08/20 02:46:17;;;;;;;10.38;4.63;;;17.40;99.90;;;;;;5109662;28;20101;-90
2022/08/20 02:48:44;;;;;;;11.15;3.88;;;17.70;99.90;;;;;;5103044;28;20093;-91
2022/08/20 02:51:09;;;;;;;7.85;4.07;;;17.30;99.90;;;;;;5101338;28;20044;-91
2022/08/20 02:53:38;;;;;;;12.90;4.32;;;17.30;99.90;;;;;;5118214;28;20055;-91
2022/08/20 02:56:06;;;;;;;11.38;4.20;;;17.20;99.90;;;;;;5092248;28;20044;-91
2022/08/20 02:58:32;;;;;;;11.30;4.38;;;17.20;99.90;;;;;;5110367;28;20059;-90
2022/08/20 03:00:58;;;;;;;7.45;4.57;;;17.20;99.90;;;;;;5093632;28;20039;-91
2022/08/20 03:03:24;;;;;;;13.95;4.57;;;17.10;99.90;;;;;;5091962;28;20082;-90
2022/08/20 03:05:53;;;;;;;7.90;4.03;;;17.10;99.90;;;;;;5074530;28;20043;-90
2022/08/20 03:08:20;;;;;;;12.23;4.32;;;17.10;99.90;;;;;;5089724;28;20078;-90
2022/08/20 03:10:47;;;;;;;11.20;4.57;;;17.00;99.90;;;;;;5108622;28;20039;-90
2022/08/20 03:13:14;;;;;;;8.35;4.25;;;16.90;99.90;;;;;;5057583;28;20071;-90
2022/08/20 03:15:44;;;;;;;15.13;4.63;;;16.90;99.90;;;;;;5079368;28;20040;-90
2022/08/20 03:18:10;;;;;;;10.05;4.28;;;16.80;99.90;;;;;;5097126;28;20039;-90
2022/08/20 03:20:36;;;;;;;10.88;3.97;;;16.80;99.90;;;;;;5095823;28;20047;-91
2022/08/20 03:23:02;;;;;;;9.30;4.10;;;16.80;99.90;;;;;;5096913;28;20036;-90
2022/08/20 03:25:28;;;;;;;11.38;3.97;;;16.70;99.90;;;;;;5112589;28;20065;-91
2022/08/20 03:27:55;;;;;;;11.50;3.83;;;16.70;99.90;;;;;;5097056;28;20047;-92
2022/08/20 03:30:23;;;;;;;16.10;4.28;;;16.70;99.90;;;;;;5113161;28;20110;-91
2022/08/20 03:32:49;;;;;;;9.23;3.47;;;16.80;99.90;;;;;;5096799;28;20050;-92
2022/08/20 03:35:18;;;;;;;12.68;4.03;;;16.70;99.90;;;;;;5079838;28;20148;-91
2022/08/20 03:37:45;;;;;;;12.07;3.72;;;16.70;99.90;;;;;;5111633;28;20047;-90
2022/08/20 03:40:17;;;;;;;8.38;3.20;;;16.70;99.90;;;;;;5095711;28;20047;-91
2022/08/20 03:42:45;;;;;;;10.15;2.58;;;16.90;99.90;;;;;;5095015;28;20075;-90
2022/08/20 03:45:12;;;;;;;11.35;2.92;;;16.70;99.90;;;;;;5079241;28;20044;-92
2022/08/20 03:47:41;;;;;;;8.85;3.10;;;16.70;99.90;;;;;;5094613;28;20043;-92
2022/08/20 03:50:09;;;;;;;12.40;3.10;;;16.70;99.90;;;;;;5095627;28;20375;-91
2022/08/20 03:52:36;;;;;;;9.15;2.67;;;16.70;99.90;;;;;;5112875;28;20057;-92
2022/08/20 03:55:04;;;;;;;7.40;2.55;;;16.80;99.90;;;;;;5111305;28;20035;-92
2022/08/20 03:57:29;;;;;;;9.57;2.80;;;16.70;99.90;;;;;;5095709;28;20051;-91
2022/08/20 03:59:55;;;;;;;19.35;2.42;;;16.70;99.90;;;;;;5077167;28;20198;-91
2022/08/20 04:02:21;;;;;;;6.43;2.03;;;16.70;99.90;;;;;;5112154;28;20138;-90
2022/08/20 04:04:47;;;;;;;14.13;3.28;;;16.70;99.90;;;;;;5111294;28;20047;-91
2022/08/20 04:07:17;;;;;;;9.52;2.47;;;16.70;99.90;;;;;;5095375;28;20043;-91
2022/08/20 04:09:43;;;;;;;10.68;3.28;;;16.20;99.90;;;;;;5112602;28;20061;-91
2022/08/20 04:12:12;;;;;;;11.80;2.38;;;16.60;99.90;;;;;;5094125;28;20078;-92
2022/08/20 04:14:39;;;;;;;7.22;1.88;;;16.60;99.90;;;;;;5079619;28;20486;-91
2022/08/20 04:17:11;;;;;;;14.63;2.27;;;16.60;99.90;;;;;;5094041;28;20050;-92
2022/08/20 04:19:37;;;;;;;7.90;1.65;;;16.60;99.90;;;;;;5095438;28;20050;-91
2022/08/20 04:22:04;;;;;;;8.05;1.65;;;16.40;99.90;;;;;;5094634;28;20040;-92
2022/08/20 04:24:31;;;;;;;11.70;1.45;;;16.50;99.90;;;;;;5111937;28;20079;-91
2022/08/20 04:26:57;;;;;;;7.25;1.73;;;16.40;99.90;;;;;;5094965;28;20050;-92
2022/08/20 04:29:24;;;;;;;5.95;1.20;;;16.10;99.90;;;;;;5094264;28;20040;-91
2022/08/20 04:31:51;;;;;;;9.98;2.13;;;16.40;99.90;;;;;;5095633;28;20120;-91
2022/08/20 04:34:18;;;;;;;7.68;2.35;;;16.40;99.90;;;;;;5111877;28;20039;-91
2022/08/20 04:36:47;;;;;;;8.25;1.90;;;16.30;99.90;;;;;;5112575;28;20055;-91
2022/08/20 04:39:14;;;;;;;8.38;2.13;;;16.30;99.90;;;;;;5111831;28;20079;-91
2022/08/20 04:41:41;;;;;;;4.80;1.20;;;16.30;99.90;;;;;;5094519;28;20046;-90
2022/08/20 04:44:09;;;;;;;9.15;1.60;;;16.30;99.90;;;;;;5112110;28;20055;-91
2022/08/20 04:46:35;;;;;;;12.00;1.60;;;16.30;99.90;;;;;;5111346;28;20499;-90
2022/08/20 04:49:02;;;;;;;6.47;2.20;;;16.30;99.90;;;;;;5112644;28;20138;-91
2022/08/20 04:51:29;;;;;;;12.23;1.50;;;16.20;99.90;;;;;;5076994;28;20069;-91
2022/08/20 04:54:03;;;;;;;7.30;1.77;;;16.30;99.90;;;;;;5113031;28;20148;-92
2022/08/20 04:56:33;;;;;;;7.93;1.48;;;16.30;99.90;;;;;;5112426;28;20047;-90
2022/08/20 04:59:00;;;;;;;7.75;1.70;;;16.30;99.90;;;;;;5111774;28;20067;-91
2022/08/20 05:01:27;;;;;;;8.48;1.77;;;16.30;99.90;;;;;;5112620;28;20050;-90
2022/08/20 05:03:54;;;;;;;9.32;1.48;;;16.30;99.90;;;;;;5095051;28;20533;-91
2022/08/20 05:06:27;;;;;;;4.63;1.40;;;16.40;99.90;;;;;;5112633;28;20134;-93
2022/08/20 05:08:56;;;;;;;6.72;1.15;;;16.30;99.90;;;;;;5094909;28;20535;-92
2022/08/20 05:11:23;;;;;;;6.30;1.52;;;16.30;99.90;;;;;;5062078;28;20040;-93
2022/08/20 05:13:51;;;;;;;10.02;2.90;;;16.30;99.90;;;;;;5095622;28;20086;-93
2022/08/20 05:16:18;;;;;;;7.85;1.70;;;16.30;99.90;;;;;;5094098;28;20044;-92
2022/08/20 05:18:45;;;;;;;14.35;1.65;;;16.30;99.90;;;;;;5092576;28;20134;-91
2022/08/20 05:21:11;;;;;;;9.55;1.45;;;16.30;99.90;;;;;;5074819;28;20040;-91
2022/08/20 05:23:41;;;;;;;6.57;1.17;;;16.30;99.90;;;;;;5076232;28;20126;-93
2022/08/20 05:26:10;;;;;;;13.95;1.35;;;16.30;99.90;;;;;;5109515;28;20047;-92
2022/08/20 05:28:38;;;;;;;8.38;2.08;;;15.70;99.90;;;;;;5075500;28;20048;-93
2022/08/20 05:31:08;;;;;;;6.93;1.33;;;16.30;99.90;;;;;;5092548;28;20130;-91
2022/08/20 05:33:35;;;;;;;7.28;1.20;;;16.30;99.90;;;;;;5092227;28;20043;-93
2022/08/20 05:36:04;;;;;;;6.20;1.70;;;16.20;99.90;;;;;;5092460;28;20399;-92
2022/08/20 05:38:29;;;;;;;7.07;1.15;;;16.20;99.90;;;;;;5077641;28;20043;-92
2022/08/20 05:40:55;;;;;;;9.27;1.40;;;16.20;99.90;;;;;;5078687;28;20047;-92
2022/08/20 05:43:21;;;;;;;4.38;1.02;;;16.40;99.90;;;;;;5095336;28;20051;-92
2022/08/20 05:45:51;;;;;;;7.63;1.90;;;17.00;99.90;;;;;;5092119;28;20106;-92
2022/08/20 05:48:22;;;;;;;7.15;1.17;;;16.10;99.90;;;;;;5093208;28;20036;-92
2022/08/20 05:50:49;;;;;;;5.75;0.95;;;16.10;99.90;;;;;;5108846;28;20043;-92
2022/08/20 05:53:16;;;;;;;10.10;1.80;;;16.20;99.90;;;;;;5092137;28;20043;-92
2022/08/20 05:55:43;;;;;;;10.70;1.20;;;16.10;99.90;;;;;;5109109;28;20139;-92
2022/08/20 05:58:24;;;;;;;13.93;1.70;;;16.30;99.90;;;;;;5091914;28;20052;-92
2022/08/20 06:00:51;;;;;;;6.50;1.65;;;16.40;99.90;;;;;;5103606;28;20078;-92
2022/08/20 06:06:04;;;;;;;6.25;0.88;;;16.50;99.90;;;;;;5109252;28;20060;-92
2022/08/20 06:08:30;;;;;;;7.97;1.45;;;16.70;99.90;;;;;;5092049;28;20043;-91
2022/08/20 06:10:56;;;;;;;9.45;2.10;;;16.80;99.90;;;;;;5075103;28;20043;-93
2022/08/20 06:13:22;;;;;;;6.63;1.33;;;16.90;99.90;;;;;;5109942;28;20039;-91
2022/08/20 06:15:48;;;;;;;8.77;1.52;;;17.00;99.90;;;;;;5091754;28;20039;-93
2022/08/20 06:18:14;;;;;;;4.65;0.90;;;17.10;99.90;;;;;;5092465;28;20043;-91
2022/08/20 06:20:40;;;;;;;8.25;1.33;;;17.30;99.90;;;;;;5092344;28;20031;-92
2022/08/20 06:23:06;;;;;;;9.27;1.08;;;17.40;99.90;;;;;;5058905;28;20105;-92
2022/08/20 06:25:33;;;;;;;5.93;1.05;;;17.50;99.90;;;;;;5091264;28;20303;-92
2022/08/20 06:28:00;;;;;;;10.35;0.98;;;17.60;99.90;;;;;;5109115;28;20100;-93
2022/08/20 06:30:26;;;;;;;5.10;0.90;;;17.70;99.90;;;;;;5076315;28;20406;-91
2022/08/20 06:32:52;;;;;;;3.70;0.90;;;17.80;99.90;;;;;;5110168;28;20129;-92
2022/08/20 06:35:17;;;;;;;6.13;1.27;;;18.00;99.90;;;;;;5096318;28;20051;-93
2022/08/20 06:37:43;;;;;;;12.30;1.55;;;18.10;99.90;;;;;;5096628;28;20047;-94
2022/08/20 06:40:13;;;;;;;5.95;0.93;;;18.20;99.90;;;;;;5113845;28;20040;-92
2022/08/20 06:42:42;;;;;;;9.40;2.22;;;18.30;99.90;;;;;;5112409;28;20043;-92
2022/08/20 06:45:17;;;;;;;10.75;1.08;;;18.40;99.90;;;;;;5097017;28;20039;-93
2022/08/20 06:47:45;;;;;;;7.22;1.08;;;18.50;99.90;;;;;;5097420;28;20478;-93
2022/08/20 06:50:18;;;;;;;6.95;1.67;;;18.60;99.90;;;;;;5095848;28;20048;-94
2022/08/20 06:52:47;;;;;;;8.65;1.98;;;18.70;99.90;;;;;;5116289;28;20044;-93
2022/08/20 06:55:15;;;;;;;8.00;1.45;;;18.80;99.90;;;;;;5116045;28;20108;-94
2022/08/20 06:57:42;;;;;;;7.32;1.85;;;18.90;99.90;;;;;;5101232;28;20039;-94
2022/08/20 07:00:15;;;;;;;5.70;1.20;;;18.90;99.90;;;;;;5101811;28;20050;-93
2022/08/20 07:02:41;;;;;;;5.43;0.75;;;19.00;99.90;;;;;;5099990;28;20039;-92
2022/08/20 07:05:07;;;;;;;7.25;0.88;;;19.00;99.90;;;;;;5123119;28;20069;-92
2022/08/20 07:07:33;;;;;;;6.72;1.00;;;19.10;99.90;;;;;;5087216;28;20044;-92
2022/08/20 07:10:08;;;;;;;4.65;1.08;;;19.20;99.90;;;;;;5122041;28;20073;-93
2022/08/20 07:12:35;;;;;;;4.95;0.70;;;19.30;99.90;;;;;;5104012;28;20048;-94
2022/08/20 07:15:08;;;;;;;7.13;2.35;;;19.40;99.90;;;;;;5094338;28;20027;-94
2022/08/20 07:17:34;;;;;;;3.78;0.90;;;19.50;99.90;;;;;;5130909;28;20039;-94
2022/08/20 07:20:12;;;;;;;6.32;1.08;;;19.60;99.90;;;;;;5130869;28;20066;-93
2022/08/20 07:22:38;;;;;;;5.72;0.73;;;19.70;99.90;;;;;;5112284;28;20055;-94
2022/08/20 07:25:06;;;;;;;3.72;0.70;;;19.90;99.90;;;;;;5092852;28;20091;-94
2022/08/20 07:27:32;;;;;;;5.78;0.70;;;20.00;99.90;;;;;;5099604;28;20483;-94
2022/08/20 07:32:43;;;;;;;6.30;1.02;;;20.10;99.90;;;;;;5121586;28;20059;-94
2022/08/20 07:35:13;;;;;;;4.20;1.10;;;20.20;99.90;;;;;;5129241;27;20060;-94
2022/08/20 07:37:45;;;;;;;4.55;0.68;;;20.30;99.90;;;;;;5122683;27;20062;-95
2022/08/20 07:40:18;;;;;;;3.45;0.80;;;20.90;99.90;;;;;;5102140;27;20039;-93
2022/08/20 07:42:43;;;;;;;;;;;20.50;99.90;;;;;;5117392;27;20035;-93
2022/08/20 07:45:12;;;;;;;4.20;0.65;;;20.50;99.90;;;;;;5097663;27;19931;-95
2022/08/20 07:47:40;;;;;;;3.03;1.05;;;20.50;99.90;;;;;;5099590;27;20047;-95
2022/08/20 07:50:08;;;;;;;6.85;1.15;;;20.40;99.90;;;;;;5095481;27;20581;-94
2022/08/20 07:52:34;;;;;;;7.60;1.15;;;20.20;99.90;;;;;;5112333;27;20047;-94
2022/08/20 07:55:05;;;;;;;3.92;0.63;;;20.20;99.90;;;;;;5110500;27;20042;-94
2022/08/20 07:57:33;;;;;;;5.78;0.70;;;20.20;99.90;;;;;;5111985;27;20051;-93
2022/08/20 08:00:03;;;;;;;5.35;0.63;;;20.10;99.90;;;;;;5115667;27;20047;-93
2022/08/20 08:02:29;;;;;;;2.55;0.63;;;20.20;99.90;;;;;;5081559;27;20039;-94
2022/08/20 08:04:55;;;;;;;6.07;0.90;;;20.20;99.90;;;;;;5083986;27;20050;-94
2022/08/20 08:07:24;;;;;;;4.25;0.65;;;20.40;99.90;;;;;;5115043;27;20066;-94
2022/08/20 08:09:50;;;;;;;6.10;0.70;;;20.50;99.90;;;;;;5117478;27;20050;-93
2022/08/20 08:12:17;;;;;;;4.70;0.73;;;20.70;99.90;;;;;;5115834;27;20039;-95
2022/08/20 08:14:46;;;;;;;7.93;1.88;;;20.80;99.90;;;;;;5101019;27;20042;-93
2022/08/20 08:17:13;;;;;;;4.88;0.70;;;20.90;99.90;;;;;;5098582;27;20092;-94
2022/08/20 08:19:47;;;;;;;4.25;0.70;;;21.00;99.90;;;;;;5116888;27;20045;-93
2022/08/20 08:22:17;;;;;;;5.65;1.25;;;21.20;99.90;;;;;;5101795;27;20497;-93
2022/08/20 08:24:45;;;;;;;2.92;0.70;;;21.30;99.90;;;;;;5115897;27;20134;-94
2022/08/20 08:27:12;;;;;;;2.85;0.85;;;21.30;99.90;;;;;;5089291;27;20059;-92
2022/08/20 08:29:40;;;;;;;5.53;0.90;;;21.50;99.90;;;;;;5107274;27;20076;-94
2022/08/20 08:32:09;;;;;;;6.03;0.93;;;21.60;99.90;;;;;;5125526;27;20058;-93
2022/08/20 08:34:36;;;;;;;8.55;0.73;;;21.70;99.90;;;;;;5085542;27;20043;-93
2022/08/20 08:37:03;;;;;;;2.80;0.50;;;21.70;99.90;;;;;;5102132;27;20055;-94
2022/08/20 08:39:31;;;;;;;4.28;0.63;;;21.80;99.90;;;;;;5118908;27;20089;-94
2022/08/20 08:42:03;;;;;;;5.47;0.65;;;21.90;99.90;;;;;;5117685;27;20046;-95
2022/08/20 08:44:34;;;;;;;;;;;22.00;99.90;;;;;;5119844;28;20042;-94
2022/08/20 08:47:29;;;;;;;6.50;0.77;;;22.10;99.90;;;;;;5116609;28;19919;-94
2022/08/20 08:49:58;;;;;;;3.67;0.70;;;22.70;99.90;;;;;;5101946;27;20046;-93
2022/08/20 08:52:30;;;;;;;3.85;1.02;;;22.40;99.90;;;;;;5085389;28;20058;-96
2022/08/20 08:55:14;;;;;;;3.67;0.95;;;22.50;99.90;;;;;;5118914;28;20058;-94
2022/08/20 08:57:48;;;;;;;4.63;1.05;;;22.70;99.90;;;;;;5120604;28;20053;-94
2022/08/20 09:00:22;;;;;;;4.20;0.65;;;22.80;99.90;;;;;;5101027;28;20042;-95
2022/08/20 09:03:01;;;;;;;2.72;0.40;;;22.80;99.90;;;;;;5124473;28;20078;-94
2022/08/20 09:05:41;;;;;;;5.25;0.77;;;23.30;99.90;;;;;;5124959;28;20473;-96
2022/08/20 09:08:12;;;;;;;3.25;0.70;;;23.00;99.90;;;;;;5126496;28;20055;-94
2022/08/20 09:10:38;;;;;;;2.72;0.68;;;22.90;99.90;;;;;;5113102;28;20062;-95
2022/08/20 09:13:05;;;;;;;4.65;0.80;;;23.00;99.90;;;;;;5126703;27;20049;-96
2022/08/20 09:15:31;;;;;;;5.32;0.60;;;23.10;99.90;;;;;;5127907;27;20039;-94
2022/08/20 09:17:57;;;;;;;3.40;0.75;;;23.10;99.90;;;;;;5125646;27;20047;-95
2022/08/20 09:20:25;;;;;;;2.97;0.82;;;23.00;99.90;;;;;;5125392;27;20035;-94
2022/08/20 09:22:51;;;;;;;4.22;1.08;;;23.30;99.90;;;;;;5106224;27;20047;-94
2022/08/20 09:25:21;;;;;;;3.38;0.80;;;23.00;99.90;;;;;;5106941;27;20054;-95
2022/08/20 09:27:47;;;;;;;5.88;0.80;;;23.30;99.90;;;;;;5122783;27;20536;-93
2022/08/20 09:30:14;;;;;;;2.70;0.55;;;23.30;99.90;;;;;;5122359;27;20047;-95
2022/08/20 09:32:41;;;;;;;3.67;0.90;;;23.00;99.90;;;;;;5105278;27;20039;-93
2022/08/20 09:35:12;;;;;;;4.05;0.70;;;23.20;99.90;;;;;;5106013;27;20046;-93
2022/08/20 09:37:38;;;;;;;4.65;0.90;;;23.00;99.90;;;;;;5106066;27;20094;-95
2022/08/20 09:40:07;;;;;;;2.75;0.75;;;22.80;99.90;;;;;;5105338;27;20039;-94
2022/08/20 09:42:34;;;;;;;3.45;0.82;;;22.80;99.90;;;;;;5104702;27;20035;-94
2022/08/20 09:45:01;;;;;;;3.63;0.70;;;22.80;99.90;;;;;;5122275;27;20028;-93
2022/08/20 09:47:27;;;;;;;3.72;0.80;;;23.00;99.90;;;;;;5104976;27;20043;-94
2022/08/20 09:49:53;;;;;;;4.03;1.10;;;23.00;99.90;;;;;;5121981;27;20050;-94
2022/08/20 09:52:24;;;;;;;2.60;0.52;;;23.10;99.90;;;;;;5106403;27;20039;-91
2022/08/20 09:54:53;;;;;;;2.72;0.70;;;23.00;99.90;;;;;;5123324;27;20043;-94
2022/08/20 09:57:20;;;;;;;2.35;0.75;;;22.90;99.90;;;;;;5107452;27;20059;-96
2022/08/20 09:59:59;;;;;;;6.90;1.25;;;22.90;99.90;;;;;;5123081;27;20100;-91
2022/08/20 10:02:25;;;;;;;7.57;1.00;;;23.00;99.90;;;;;;5106019;27;20048;-94
2022/08/20 10:04:51;;;;;;;4.97;1.40;;;23.60;99.90;;;;;;5105934;27;20035;-93
2022/08/20 10:07:17;;;;;;;4.07;0.90;;;23.40;99.90;;;;;;5124296;27;20050;-93
2022/08/20 10:09:46;;;;;;;4.78;0.90;;;23.70;99.90;;;;;;5122898;27;20192;-94
2022/08/20 10:12:12;;;;;;;4.50;1.10;;;23.80;99.90;;;;;;5087652;27;20578;-94
2022/08/20 10:14:41;;;;;;;4.63;0.93;;;23.80;99.60;;;;;;5099769;27;20039;-92
2022/08/20 10:17:06;;;;;;;5.97;1.02;;;23.70;99.40;;;;;;5098266;27;20046;-94
2022/08/20 10:19:34;;;;;;;5.32;1.40;;;23.60;99.40;;;;;;5098635;27;20078;-94
2022/08/20 10:22:00;;;;;;;3.67;0.70;;;23.50;99.40;;;;;;5098899;27;20043;-93
2022/08/20 10:24:29;;;;;;;5.40;1.25;;;23.40;99.30;;;;;;5115756;27;20080;-94
2022/08/20 10:26:57;;;;;;;6.93;1.38;;;23.40;99.30;;;;;;5116192;27;20072;-94
2022/08/20 10:29:38;;;;;;;3.63;0.70;;;23.50;99.90;;;;;;5118967;27;20047;-94
2022/08/20 10:32:19;;;;;;;4.10;0.77;;;23.80;99.70;;;;;;5135293;27;20126;-94
2022/08/20 10:34:45;;;;;;;2.97;0.68;;;23.90;98.60;;;;;;5082850;27;20074;-93
2022/08/20 10:37:18;;;;;;;3.58;0.70;;;24.00;97.80;;;;;;5114207;28;20052;-94
2022/08/20 10:39:45;;;;;;;3.85;1.15;;;24.00;95.50;;;;;;5097365;28;20131;-95
2022/08/20 10:42:10;;;;;;;3.17;0.90;;;23.90;96.60;;;;;;5081522;28;20039;-94
2022/08/20 10:44:38;;;;;;;4.72;0.85;;;23.80;95.80;;;;;;5097894;28;20074;-94
2022/08/20 10:47:23;;;;;;;7.25;1.17;;;23.70;95.80;;;;;;5080324;28;20075;-94
2022/08/20 10:49:51;;;;;;;4.15;0.93;;;23.80;96.90;;;;;;5114391;28;20043;-94
2022/08/20 10:52:22;;;;;;;6.90;1.47;;;23.90;98.40;;;;;;5097564;28;20058;-94
2022/08/20 10:54:48;;;;;;;5.28;0.95;;;23.90;98.40;;;;;;5096761;28;20282;-93
2022/08/20 10:57:25;;;;;;;4.65;1.17;;;23.90;98.40;;;;;;5114706;28;20082;-94
2022/08/20 10:59:52;;;;;;;5.13;1.02;;;23.90;97.90;;;;;;5097162;28;20044;-94
2022/08/20 11:02:20;;;;;;;4.15;1.08;;;24.00;97.80;;;;;;5114194;28;20086;-94
2022/08/20 11:04:48;;;;;;;6.68;0.98;;;24.00;97.60;;;;;;5096549;28;20041;-94
2022/08/20 11:07:26;;;;;;;6.13;1.20;;;24.10;97.50;;;;;;5114252;28;20177;-93
2022/08/20 11:09:54;;;;;;;4.03;1.00;;;24.20;97.50;;;;;;5096004;28;20051;-94
2022/08/20 11:12:21;;;;;;;3.58;0.90;;;24.20;97.60;;;;;;5114136;28;20044;-95
2022/08/20 11:14:48;;;;;;;5.70;1.00;;;24.20;96.70;;;;;;5114416;28;20044;-93
2022/08/20 11:17:26;;;;;;;5.20;1.13;;;24.30;95.70;;;;;;5081337;28;20063;-93
2022/08/20 11:19:53;;;;;;;7.28;0.82;;;24.60;96.10;;;;;;5114609;28;20462;-92
2022/08/20 11:22:28;;;;;;;8.68;1.33;;;24.90;95.20;;;;;;5113241;28;20039;-94
2022/08/20 11:24:54;;;;;;;5.25;1.45;;;25.00;94.90;;;;;;5079673;28;20055;-93
2022/08/20 11:27:33;;;;;;;4.68;1.38;;;25.20;95.00;;;;;;5113533;28;20055;-93
2022/08/20 11:29:59;;;;;;;4.93;1.27;;;25.10;93.40;;;;;;5113279;28;20043;-93
2022/08/20 11:32:26;;;;;;;4.88;1.10;;;25.00;92.80;;;;;;5113380;28;20085;-93
2022/08/20 11:34:53;;;;;;;3.33;1.35;;;25.00;92.30;;;;;;5110936;27;20044;-92
2022/08/20 11:37:22;;;;;;;7.63;1.05;;;25.10;93.30;;;;;;5117009;27;20102;-92
2022/08/20 11:39:48;;;;;;;3.90;0.95;;;25.50;92.10;;;;;;5116755;27;20050;-93
2022/08/20 11:42:15;;;;;;;5.75;1.13;;;25.50;90.30;;;;;;5100815;27;20047;-92
2022/08/20 11:44:44;;;;;;;4.32;1.40;;;25.50;88.10;;;;;;5135008;27;20079;-94
2022/08/20 11:47:21;;;;;;;3.05;0.75;;;25.50;87.50;;;;;;5099886;27;20161;-92
2022/08/20 11:49:56;;;;;;;3.10;0.80;;;25.50;90.30;;;;;;5082700;27;20031;-93
2022/08/20 11:52:31;;;;;;;6.25;1.23;;;25.50;91.50;;;;;;5117596;27;20116;-93
2022/08/20 11:54:57;;;;;;;6.03;1.85;;;25.30;91.80;;;;;;5099271;27;20462;-92
2022/08/20 11:57:26;;;;;;;3.53;1.10;;;25.30;91.60;;;;;;5083062;27;20035;-92
2022/08/20 11:59:54;;;;;;;4.65;0.82;;;25.50;91.60;;;;;;5099592;27;20043;-92
2022/08/20 12:02:20;;;;;;;6.82;1.15;;;25.70;90.40;;;;;;5099856;27;20066;-93
2022/08/20 12:04:47;;;;;;;5.25;1.48;;;25.60;86.70;;;;;;5115519;27;20088;-91
2022/08/20 12:07:16;;;;;;;3.15;0.77;;;25.50;86.90;;;;;;5097980;27;20031;-92
2022/08/20 12:09:43;;;;;;;3.70;0.88;;;25.60;87.80;;;;;;5082360;27;20035;-92
2022/08/20 12:12:09;;;;;;;4.63;1.05;;;25.70;85.70;;;;;;5099291;27;20078;-94
2022/08/20 12:14:35;;;;;;;5.18;0.98;;;25.50;83.90;;;;;;5082238;27;20078;-92
2022/08/20 12:17:22;;;;;;;5.63;1.63;;;25.30;83.40;;;;;;5099346;27;20054;-92
2022/08/20 12:19:54;;;;;;;5.72;1.10;;;25.10;79.70;;;;;;5116913;27;20115;-91
2022/08/20 12:22:20;;;;;;;6.28;1.38;;;24.80;83.50;;;;;;5115938;27;20051;-91
2022/08/20 12:24:47;;;;;;;3.15;0.80;;;24.60;84.70;;;;;;5101037;27;20504;-93
2022/08/20 12:27:16;;;;;;;3.75;1.02;;;24.40;85.80;;;;;;5102509;27;20058;-91
2022/08/20 12:29:44;;;;;;;5.38;1.15;;;24.60;85.30;;;;;;5101171;28;20046;-90
2022/08/20 12:32:10;;;;;;;4.70;1.08;;;24.80;83.60;;;;;;5102286;27;20099;-92
2022/08/20 12:34:40;;;;;;;9.13;1.50;;;25.20;83.90;;;;;;5100938;27;20189;-92
2022/08/20 12:37:12;;;;;;;6.10;0.93;;;25.30;76.80;;;;;;5120041;27;20051;-92
2022/08/20 12:39:40;;;;;;;4.18;1.02;;;25.40;72.20;;;;;;5100384;27;20395;-92
2022/08/20 12:42:09;;;;;;;5.80;1.13;;;25.30;71.90;;;;;;5118609;27;20153;-90
2022/08/20 12:44:36;;;;;;;2.53;0.90;;;25.30;75.90;;;;;;5118434;28;20070;-91
2022/08/20 12:47:12;;;;;;;5.38;1.30;;;25.50;77.00;;;;;;5101086;27;20057;-92
2022/08/20 12:49:40;;;;;;;5.00;1.35;;;25.70;73.10;;;;;;5118534;27;20043;-91
2022/08/20 12:52:07;;;;;;;5.07;1.13;;;26.00;71.20;;;;;;5083744;28;20031;-92
2022/08/20 12:54:34;;;;;;;4.47;1.48;;;26.30;71.20;;;;;;5085851;28;20043;-91
2022/08/20 12:57:01;;;;;;;4.90;1.08;;;26.60;70.60;;;;;;5100053;28;20043;-93
2022/08/20 12:59:27;;;;;;;4.50;0.90;;;26.80;68.70;;;;;;5102142;28;20112;-92